Time;durP1;ratioP1;P1;durP2;ratioP2;P2;SDS_P1;SDS_P2;PMS_P1;PMS_P2;Temp;Humidity;BMP_temperature;BMP_pressure;BME280_temperature;BME280_humidity;BME280_pressure;Samples;Min_cycle;Max_cycle;Signal;HPM_P1;HPM_P2
2022/11/08 00:01:59;;;;;;;0.80;0.40;;;21.50;69.60;;;;;;6232748;23;20053;-35
2022/11/08 00:14:49;;;;;;;1.05;0.47;;;22.00;55.40;;;;;;6192054;28;20143;-35
2022/11/08 00:17:50;;;;;;;;;;;21.80;55.50;;;;;;6190300;28;21092;-35
2022/11/08 00:20:55;;;;;;;0.77;0.38;;;21.60;55.60;;;;;;6190562;28;19928;-36
2022/11/08 00:23:56;;;;;;;0.45;0.35;;;21.70;55.50;;;;;;6192480;28;20247;-35
2022/11/08 00:26:58;;;;;;;0.88;0.50;;;21.50;55.30;;;;;;6194090;28;20125;-35
2022/11/08 00:30:00;;;;;;;1.23;0.63;;;21.80;55.50;;;;;;6195275;28;21119;-35
2022/11/08 00:33:01;;;;;;;;;;;21.60;55.50;;;;;;6189493;28;20920;-35
2022/11/08 00:36:03;;;;;;;1.92;0.50;;;21.40;55.70;;;;;;6192634;28;19929;-35
2022/11/08 00:39:04;;;;;;;0.90;0.47;;;21.10;55.20;;;;;;6192427;28;20219;-35
2022/11/08 00:42:06;;;;;;;;;;;21.90;55.60;;;;;;6194724;28;20083;-35
2022/11/08 00:45:08;;;;;;;0.55;0.35;;;21.30;55.60;;;;;;6194032;28;20379;-35
2022/11/08 00:48:10;;;;;;;0.95;0.70;;;21.70;55.70;;;;;;6193460;28;20052;-35
2022/11/08 00:51:12;;;;;;;0.57;0.40;;;21.70;54.90;;;;;;6183539;28;20159;-35
2022/11/08 00:54:16;;;;;;;1.20;0.65;;;21.80;55.50;;;;;;6193350;28;20041;-35
2022/11/08 00:57:18;;;;;;;1.42;0.60;;;21.70;55.70;;;;;;6191980;28;20205;-34
2022/11/08 01:00:25;;;;;;;0.50;0.40;;;21.80;55.50;;;;;;6188265;28;20044;-35
2022/11/08 01:03:27;;;;;;;;;;;21.50;55.50;;;;;;6178328;28;21502;-35
2022/11/08 01:06:31;;;;;;;0.52;0.40;;;21.70;56.00;;;;;;6171724;28;19959;-35
2022/11/08 01:09:33;;;;;;;;;;;21.80;56.00;;;;;;6173813;28;20966;-35
2022/11/08 01:12:35;;;;;;;0.90;0.70;;;21.80;56.10;;;;;;6173813;28;19924;-35
2022/11/08 01:15:39;;;;;;;0.82;0.50;;;21.70;55.70;;;;;;6175803;28;20444;-35
2022/11/08 01:18:43;;;;;;;1.05;0.57;;;20.90;55.50;;;;;;6170776;28;20060;-34
2022/11/08 01:21:48;;;;;;;0.80;0.50;;;21.80;55.90;;;;;;6151314;28;20122;-35
2022/11/08 01:24:49;;;;;;;0.45;0.40;;;21.40;55.90;;;;;;6171465;28;20049;-35
2022/11/08 01:27:52;;;;;;;0.65;0.47;;;21.70;56.00;;;;;;6171287;28;20045;-35
2022/11/08 01:30:53;;;;;;;0.50;0.35;;;21.50;56.00;;;;;;6169842;28;21050;-35
2022/11/08 01:33:55;;;;;;;;;;;21.70;56.00;;;;;;6173600;28;20573;-35
2022/11/08 01:37:00;;;;;;;1.08;0.55;;;21.30;55.90;;;;;;6172803;28;20003;-35
2022/11/08 01:40:01;;;;;;;;;;;21.50;56.00;;;;;;6175992;28;21317;-34
2022/11/08 01:43:35;;;;;;;1.30;0.60;;;21.40;56.30;;;;;;6172383;28;19940;-35
2022/11/08 01:46:39;;;;;;;0.75;0.63;;;21.70;56.00;;;;;;6170446;28;20077;-35
2022/11/08 01:49:43;;;;;;;0.52;0.40;;;21.70;56.10;;;;;;6175700;28;20738;-34
2022/11/08 01:52:47;;;;;;;0.80;0.55;;;21.50;56.00;;;;;;6159799;28;20525;-35
2022/11/08 01:55:49;;;;;;;1.38;0.47;;;21.40;55.90;;;;;;6171002;28;20938;-35
2022/11/08 01:58:54;;;;;;;1.42;0.50;;;21.50;56.20;;;;;;6173775;28;20053;-34
2022/11/08 02:01:56;;;;;;;0.95;0.50;;;21.50;56.30;;;;;;6177380;28;21309;-35
2022/11/08 02:04:59;;;;;;;1.60;0.45;;;21.70;56.60;;;;;;6167996;28;20805;-35
2022/11/08 02:08:05;;;;;;;0.63;0.40;;;21.80;56.50;;;;;;6168183;28;22419;-35
2022/11/08 02:11:08;;;;;;;1.27;0.63;;;21.30;56.30;;;;;;6152080;28;20132;-35
2022/11/08 02:14:11;;;;;;;0.63;0.47;;;21.50;56.30;;;;;;6155532;28;20045;-35
2022/11/08 02:17:13;;;;;;;3.20;0.93;;;21.50;70.70;;;;;;6173221;23;20089;-35
2022/11/08 02:20:15;;;;;;;0.95;0.52;;;21.50;56.50;;;;;;6174981;28;20049;-35
2022/11/08 02:23:24;;;;;;;1.30;0.57;;;21.70;56.60;;;;;;6180003;28;20095;-35
2022/11/08 02:26:33;;;;;;;2.15;0.60;;;21.40;56.20;;;;;;6165490;28;20068;-35
2022/11/08 02:29:36;;;;;;;0.80;0.40;;;21.50;56.20;;;;;;6187195;28;20108;-35
2022/11/08 02:32:38;;;;;;;0.90;0.60;;;21.80;56.70;;;;;;6183840;28;20436;-35
2022/11/08 02:35:40;;;;;;;1.58;0.60;;;21.40;56.20;;;;;;6183764;28;20057;-35
2022/11/08 02:38:45;;;;;;;0.88;0.50;;;21.70;56.40;;;;;;6184221;28;20041;-35
2022/11/08 02:41:48;;;;;;;0.55;0.30;;;21.50;56.10;;;;;;6182575;28;20883;-35
2022/11/08 02:44:49;;;;;;;0.60;0.30;;;22.10;56.70;;;;;;6178509;28;20088;-35
2022/11/08 02:47:51;;;;;;;;;;;21.70;56.60;;;;;;6172461;28;20042;-35
2022/11/08 02:50:52;;;;;;;0.40;0.30;;;21.00;56.60;;;;;;6171598;28;19924;-35
2022/11/08 02:53:56;;;;;;;;;;;21.60;56.60;;;;;;6173826;28;21078;-35
2022/11/08 02:56:59;;;;;;;0.28;0.20;;;21.60;56.60;;;;;;6176097;28;20254;-34
2022/11/08 03:00:00;;;;;;;0.50;0.20;;;21.40;56.40;;;;;;6172794;28;20521;-35
2022/11/08 03:03:03;;;;;;;0.40;0.30;;;21.60;56.80;;;;;;6173624;28;20650;-34
2022/11/08 03:06:04;;;;;;;0.20;0.10;;;21.20;56.50;;;;;;6173532;28;20108;-34
2022/11/08 03:09:06;;;;;;;0.43;0.25;;;21.60;56.90;;;;;;6172977;28;20504;-35
2022/11/08 03:12:08;;;;;;;0.20;0.20;;;21.40;56.90;;;;;;6158425;28;20049;-35
2022/11/08 03:15:11;;;;;;;0.20;0.13;;;21.60;56.90;;;;;;6173423;28;20471;-35
2022/11/08 03:18:16;;;;;;;0.10;0.10;;;21.20;56.70;;;;;;6157939;28;20045;-35
2022/11/08 03:21:18;;;;;;;0.30;0.22;;;20.90;56.70;;;;;;6175639;28;20101;-35
2022/11/08 03:24:20;;;;;;;0.38;0.20;;;21.10;56.90;;;;;;6174791;28;20045;-34
2022/11/08 03:27:22;;;;;;;;;;;21.40;57.20;;;;;;6175094;28;20046;-35
2022/11/08 03:30:23;;;;;;;0.20;0.20;;;21.60;57.20;;;;;;6178393;28;19956;-35
2022/11/08 03:33:25;;;;;;;0.25;0.10;;;21.60;57.30;;;;;;6180978;28;20380;-34
2022/11/08 03:36:27;;;;;;;0.20;0.17;;;21.60;57.60;;;;;;6185371;28;20045;-34
2022/11/08 03:39:32;;;;;;;0.10;0.10;;;21.50;57.60;;;;;;6176265;28;20042;-35
2022/11/08 03:42:34;;;;;;;0.10;0.10;;;21.50;57.60;;;;;;6174100;28;20600;-34
2022/11/08 03:45:36;;;;;;;0.20;0.20;;;21.20;57.70;;;;;;6175547;28;20306;-34
2022/11/08 03:48:38;;;;;;;0.10;0.10;;;21.60;57.60;;;;;;6158479;28;20046;-35
2022/11/08 03:51:39;;;;;;;0.10;0.10;;;21.60;58.30;;;;;;6176614;28;20293;-35
2022/11/08 03:54:41;;;;;;;0.15;0.15;;;21.50;58.00;;;;;;6179570;28;20488;-35
2022/11/08 03:57:47;;;;;;;;;;;21.60;58.40;;;;;;6178359;28;20124;-35
2022/11/08 04:00:49;;;;;;;0.10;0.10;;;21.60;58.60;;;;;;6159993;28;20884;-34
2022/11/08 04:03:50;;;;;;;;;;;21.30;58.30;;;;;;6174970;28;20049;-34
2022/11/08 04:06:51;;;;;;;0.10;0.10;;;21.40;58.80;;;;;;6173343;28;19925;-34
2022/11/08 04:09:53;;;;;;;0.55;0.20;;;21.40;58.70;;;;;;6173974;28;20421;-35
2022/11/08 04:16:12;;;;;;;0.00;0.00;;;21.60;58.90;;;;;;6170060;28;20080;-35
2022/11/08 04:22:33;;;;;;;0.30;0.20;;;20.90;58.80;;;;;;6155399;28;20458;-34
2022/11/08 04:25:35;;;;;;;;;;;21.30;58.70;;;;;;6174338;28;20147;-35
2022/11/08 04:28:39;;;;;;;0.20;0.10;;;21.60;59.20;;;;;;6173072;28;20042;-35
2022/11/08 04:31:40;;;;;;;0.10;0.10;;;21.60;59.20;;;;;;6154808;28;20121;-35
2022/11/08 04:34:42;;;;;;;0.35;0.10;;;21.30;59.30;;;;;;6172845;28;20265;-34
2022/11/08 04:37:43;;;;;;;;;;;21.30;59.50;;;;;;6172482;28;20641;-34
2022/11/08 04:40:45;;;;;;;0.30;0.20;;;21.00;59.50;;;;;;6172965;28;20291;-35
2022/11/08 04:43:47;;;;;;;0.30;0.10;;;21.40;59.40;;;;;;6155590;28;20052;-35
2022/11/08 04:46:49;;;;;;;0.28;0.20;;;21.10;59.30;;;;;;6168885;28;20465;-34
2022/11/08 04:49:51;;;;;;;0.90;0.30;;;20.90;59.20;;;;;;6176162;28;20552;-34
2022/11/08 04:52:54;;;;;;;0.40;0.20;;;21.30;59.80;;;;;;6174585;28;20050;-35
2022/11/08 04:56:01;;;;;;;1.10;0.20;;;21.20;59.60;;;;;;6181492;28;20049;-34
2022/11/08 04:59:03;;;;;;;1.45;0.57;;;21.30;59.60;;;;;;6184489;28;21059;-35
2022/11/08 05:02:10;;;;;;;1.23;0.40;;;21.10;59.70;;;;;;6175746;28;20260;-35
2022/11/08 05:05:12;;;;;;;1.10;0.50;;;21.40;60.00;;;;;;6174985;28;20049;-34
2022/11/08 05:08:14;;;;;;;1.23;0.40;;;21.40;59.20;;;;;;6170577;28;20118;-35
2022/11/08 05:11:17;;;;;;;1.35;0.47;;;21.40;60.10;;;;;;6168872;28;20086;-35
2022/11/08 05:14:20;;;;;;;1.80;0.40;;;21.30;59.90;;;;;;6152473;28;20057;-34
2022/11/08 05:17:21;;;;;;;1.95;0.40;;;21.40;60.10;;;;;;6164912;28;20053;-34
2022/11/08 05:23:42;;;;;;;1.83;0.70;;;21.60;60.40;;;;;;6166160;28;20493;-34
2022/11/08 05:26:46;;;;;;;1.23;0.50;;;21.40;60.10;;;;;;6168991;28;20380;-34
2022/11/08 05:29:48;;;;;;;0.65;0.25;;;21.40;60.20;;;;;;6167165;28;20548;-35
2022/11/08 05:32:50;;;;;;;1.08;0.45;;;21.30;60.30;;;;;;6164451;28;20126;-35
2022/11/08 05:35:52;;;;;;;2.05;0.68;;;20.70;60.00;;;;;;6165609;28;20131;-35
2022/11/08 05:38:54;;;;;;;0.98;0.38;;;21.40;60.60;;;;;;6168078;28;20334;-35
2022/11/08 05:41:56;;;;;;;1.15;0.35;;;21.40;60.50;;;;;;6132810;28;20424;-34
2022/11/08 05:44:58;;;;;;;1.55;0.75;;;21.40;60.70;;;;;;6165601;28;21035;-35
2022/11/08 05:48:02;;;;;;;2.05;0.55;;;21.50;60.80;;;;;;6168442;28;20100;-34
2022/11/08 05:51:04;;;;;;;1.60;0.60;;;20.80;60.10;;;;;;6172564;28;20042;-35
2022/11/08 05:54:07;;;;;;;1.77;0.50;;;21.40;60.90;;;;;;6173625;28;20329;-35
2022/11/08 05:57:08;;;;;;;1.67;0.45;;;21.40;60.70;;;;;;6164089;28;20045;-35
2022/11/08 06:00:11;;;;;;;;;;;21.40;60.90;;;;;;6169895;28;21259;-35
2022/11/08 06:03:12;;;;;;;2.42;0.65;;;20.80;60.80;;;;;;6148621;28;19929;-35
2022/11/08 06:06:15;;;;;;;;;;;21.50;61.00;;;;;;6168588;28;20041;-35
2022/11/08 06:09:16;;;;;;;1.52;0.70;;;21.30;61.10;;;;;;6160113;28;19935;-35
2022/11/08 06:12:18;;;;;;;;;;;21.40;61.10;;;;;;6176442;28;20423;-34
2022/11/08 06:15:20;;;;;;;;;;;21.40;61.20;;;;;;6170737;28;20043;-35
2022/11/08 06:18:21;;;;;;;;;;;20.90;61.00;;;;;;6173652;28;19932;-34
2022/11/08 06:21:26;;;;;;;2.45;0.68;;;21.00;61.10;;;;;;6176222;28;19926;-35
2022/11/08 06:24:27;;;;;;;1.90;0.68;;;21.30;61.00;;;;;;6174601;28;22427;-35
2022/11/08 06:27:29;;;;;;;;;;;20.80;60.70;;;;;;6175874;28;20076;-35
2022/11/08 06:30:34;;;;;;;1.55;0.68;;;20.90;61.40;;;;;;6168150;28;19929;-35
2022/11/08 06:33:35;;;;;;;1.08;0.70;;;21.30;61.20;;;;;;6175313;28;20048;-35
2022/11/08 06:36:37;;;;;;;2.05;0.70;;;21.20;61.40;;;;;;6155603;28;21034;-35
2022/11/08 06:39:39;;;;;;;;;;;21.10;61.10;;;;;;6162760;28;20240;-34
2022/11/08 06:42:40;;;;;;;1.00;0.52;;;21.70;62.50;;;;;;6150412;28;20553;-35
2022/11/08 06:45:43;;;;;;;1.92;0.47;;;21.10;61.40;;;;;;6154840;28;20046;-35
2022/11/08 06:48:44;;;;;;;2.15;0.50;;;21.10;61.40;;;;;;6147224;28;20046;-35
2022/11/08 06:51:49;;;;;;;;;;;21.40;61.60;;;;;;6144228;28;20156;-35
2022/11/08 06:54:51;;;;;;;1.45;0.65;;;21.10;61.70;;;;;;6142137;28;19989;-35
2022/11/08 06:57:53;;;;;;;0.73;0.40;;;21.30;61.10;;;;;;6146214;28;21185;-35
2022/11/08 07:00:58;;;;;;;0.50;0.30;;;22.00;62.00;;;;;;6141901;28;20072;-35
2022/11/08 07:03:59;;;;;;;0.95;0.45;;;21.30;61.40;;;;;;6157291;28;20989;-35
2022/11/08 07:07:01;;;;;;;1.15;0.40;;;21.30;61.80;;;;;;6139389;28;20047;-35
2022/11/08 07:10:04;;;;;;;0.98;0.63;;;21.30;61.70;;;;;;6134750;28;20055;-35
2022/11/08 07:13:08;;;;;;;0.40;0.30;;;21.10;61.60;;;;;;6129250;28;20258;-35
2022/11/08 07:16:10;;;;;;;2.00;0.47;;;21.20;61.60;;;;;;6129206;28;20042;-35
2022/11/08 07:19:12;;;;;;;1.13;0.43;;;21.50;61.50;;;;;;6142432;28;20847;-35
2022/11/08 07:22:13;;;;;;;;;;;21.20;61.70;;;;;;6129663;28;20057;-35
2022/11/08 07:25:15;;;;;;;1.17;0.22;;;21.70;62.30;;;;;;6111124;28;19929;-35
2022/11/08 07:28:18;;;;;;;1.27;0.50;;;21.20;60.70;;;;;;6114400;28;20045;-35
2022/11/08 07:31:22;;;;;;;0.75;0.40;;;21.30;61.70;;;;;;6097839;28;20052;-35
2022/11/08 07:34:23;;;;;;;0.63;0.28;;;21.00;61.30;;;;;;6106242;28;20037;-36
2022/11/08 07:37:25;;;;;;;;;;;20.90;61.70;;;;;;6087480;28;20042;-36
2022/11/08 07:40:26;;;;;;;0.50;0.20;;;21.20;62.20;;;;;;6106525;28;19935;-36
2022/11/08 07:43:28;;;;;;;0.52;0.28;;;21.20;61.70;;;;;;6082273;28;20042;-35
2022/11/08 07:46:42;;;;;;;1.17;0.40;;;21.00;61.70;;;;;;6049297;28;20170;-36
2022/11/08 07:49:43;;;;;;;1.05;0.32;;;21.70;62.00;;;;;;6045438;28;20049;-36
2022/11/08 07:52:48;;;;;;;;;;;21.90;62.10;;;;;;6035994;28;20041;-36
2022/11/08 07:55:50;;;;;;;0.75;0.43;;;21.60;62.10;;;;;;6034753;28;19929;-36
2022/11/08 07:58:52;;;;;;;0.90;0.38;;;21.50;61.60;;;;;;6026299;28;20057;-35
2022/11/08 08:01:55;;;;;;;1.40;0.43;;;21.20;61.80;;;;;;5969225;28;20049;-36
2022/11/08 08:04:57;;;;;;;1.50;0.38;;;21.60;61.70;;;;;;5995480;28;20152;-36
2022/11/08 08:08:00;;;;;;;;;;;20.90;61.70;;;;;;6011587;28;20072;-36
2022/11/08 08:11:03;;;;;;;1.02;0.30;;;21.60;62.30;;;;;;5994112;28;19929;-36
2022/11/08 08:14:05;;;;;;;0.93;0.35;;;21.00;61.80;;;;;;5965865;28;20483;-35
2022/11/08 08:17:07;;;;;;;;;;;21.50;61.90;;;;;;5941648;28;22178;-36
2022/11/08 08:20:10;;;;;;;1.15;0.52;;;21.60;62.10;;;;;;5958993;28;22886;-35
2022/11/08 08:23:11;;;;;;;1.30;0.40;;;21.00;61.10;;;;;;6004571;28;20089;-35
2022/11/08 08:26:13;;;;;;;1.30;0.50;;;21.10;61.90;;;;;;5981457;28;20138;-35
2022/11/08 08:29:15;;;;;;;0.73;0.35;;;21.60;62.10;;;;;;5966507;28;20053;-35
2022/11/08 08:32:17;;;;;;;;;;;21.20;62.00;;;;;;5970134;28;21479;-36
2022/11/08 08:35:26;;;;;;;1.13;0.40;;;21.60;62.30;;;;;;6135951;27;20133;-34
2022/11/08 08:38:29;;;;;;;0.88;0.40;;;21.50;61.90;;;;;;6074326;27;21097;-34
2022/11/08 08:41:30;;;;;;;1.92;0.60;;;21.70;62.30;;;;;;6040286;27;20042;-34
2022/11/08 08:44:36;;;;;;;1.15;0.30;;;;;;;;;;6100645;27;20068;-34
2022/11/08 08:47:43;;;;;;;0.68;0.32;;;21.50;66.50;;;;;;6054360;27;29533;-34
2022/11/08 08:50:47;;;;;;;1.05;0.35;;;21.40;69.00;;;;;;6094394;27;22512;-34
2022/11/08 08:53:48;;;;;;;0.98;0.30;;;21.70;69.20;;;;;;6084885;27;20050;-34
2022/11/08 08:56:52;;;;;;;0.82;0.40;;;21.40;68.30;;;;;;6067662;27;21761;-34
2022/11/08 08:59:54;;;;;;;0.50;0.40;;;21.50;68.60;;;;;;6069101;27;20050;-34
2022/11/08 09:03:19;;;;;;;1.08;0.63;;;21.70;68.60;;;;;;5978183;27;20074;-34
2022/11/08 09:06:22;;;;;;;0.75;0.40;;;21.30;68.30;;;;;;6031313;27;20573;-34
2022/11/08 09:09:24;;;;;;;1.20;0.32;;;21.70;68.50;;;;;;6046108;27;20170;-35
2022/11/08 09:12:25;;;;;;;1.13;0.45;;;21.70;66.70;;;;;;6041278;27;20045;-35
2022/11/08 09:15:28;;;;;;;0.77;0.40;;;21.60;66.60;;;;;;6031783;27;29390;-35
2022/11/08 09:18:30;;;;;;;0.63;0.30;;;21.80;66.80;;;;;;6040693;27;23325;-35
2022/11/08 09:21:32;;;;;;;0.93;0.38;;;21.80;67.00;;;;;;6064209;27;23570;-35
2022/11/08 09:24:35;;;;;;;1.13;0.40;;;21.70;66.30;;;;;;5994203;27;31566;-34
2022/11/08 09:27:37;;;;;;;0.60;0.35;;;21.80;65.50;;;;;;6018100;27;26278;-34
2022/11/08 09:30:39;;;;;;;0.65;0.30;;;21.80;65.50;;;;;;6040109;27;30312;-34
2022/11/08 09:33:41;;;;;;;1.42;0.30;;;21.80;66.00;;;;;;6051184;27;20051;-34
2022/11/08 09:36:43;;;;;;;0.60;0.28;;;21.70;65.60;;;;;;6086828;27;21303;-35
2022/11/08 09:39:45;;;;;;;0.73;0.28;;;22.20;65.60;;;;;;6086463;27;20035;-34
2022/11/08 09:42:58;;;;;;;0.65;0.20;;;21.50;65.50;;;;;;6112648;27;20166;-34
2022/11/08 09:46:00;;;;;;;0.75;0.28;;;21.70;65.40;;;;;;6065452;27;20068;-34
2022/11/08 09:49:04;;;;;;;0.47;0.30;;;21.90;65.70;;;;;;6079862;27;21449;-46
2022/11/08 09:52:15;;;;;;;1.75;0.40;;;21.70;65.20;;;;;;6079717;27;20923;-45
2022/11/08 09:55:25;;;;;;;0.93;0.40;;;21.50;65.00;;;;;;6018213;27;21267;-45
2022/11/08 09:58:32;;;;;;;0.68;0.20;;;21.70;64.90;;;;;;6049355;27;24256;-45
2022/11/08 10:01:35;;;;;;;1.52;0.40;;;22.00;65.00;;;;;;5899849;27;25016;-45
2022/11/08 10:04:38;;;;;;;0.20;0.17;;;21.50;64.80;;;;;;5989732;27;20711;-45
2022/11/08 10:07:45;;;;;;;0.57;0.30;;;21.90;64.90;;;;;;5946236;27;21213;-44
2022/11/08 10:11:00;;;;;;;0.52;0.35;;;21.20;64.30;;;;;;5864137;27;20047;-44
2022/11/08 10:14:22;;;;;;;0.47;0.25;;;21.90;64.70;;;;;;5863949;27;20057;-45
2022/11/08 10:17:47;;;;;;;0.68;0.40;;;21.90;64.50;;;;;;5941236;27;20051;-44
2022/11/08 10:20:59;;;;;;;1.20;0.50;;;21.50;64.40;;;;;;6010937;27;20042;-46
2022/11/08 10:24:08;;;;;;;1.08;0.60;;;21.90;64.50;;;;;;5950266;27;20161;-46
2022/11/08 10:27:15;;;;;;;0.82;0.40;;;21.90;64.60;;;;;;5905488;27;21442;-46
2022/11/08 10:30:20;;;;;;;1.20;0.50;;;21.80;64.60;;;;;;5864662;22;20104;-46
2022/11/08 10:33:26;;;;;;;1.40;0.52;;;21.90;64.60;;;;;;5801805;22;20091;-46
2022/11/08 10:36:37;;;;;;;1.48;0.40;;;21.90;64.70;;;;;;5779171;28;20404;-45
2022/11/08 10:39:45;;;;;;;0.38;0.17;;;21.90;64.30;;;;;;5799166;28;26168;-45
2022/11/08 10:42:53;;;;;;;1.80;0.52;;;21.70;64.10;;;;;;5948449;28;20040;-45
2022/11/08 10:45:54;;;;;;;0.77;0.43;;;22.30;64.30;;;;;;5935330;28;20051;-46
2022/11/08 10:48:59;;;;;;;0.98;0.40;;;21.70;64.00;;;;;;5931235;28;24263;-45
2022/11/08 10:52:15;;;;;;;0.75;0.40;;;21.80;64.10;;;;;;5938050;28;20418;-46
2022/11/08 10:55:26;;;;;;;1.42;0.47;;;21.70;64.10;;;;;;5893926;28;20667;-45
2022/11/08 10:58:31;;;;;;;0.88;0.40;;;21.70;64.10;;;;;;5917317;28;20129;-45
2022/11/08 11:01:32;;;;;;;0.68;0.32;;;23.10;64.70;;;;;;5890658;28;20045;-45
2022/11/08 11:04:36;;;;;;;0.90;0.63;;;21.70;64.20;;;;;;5921111;28;22002;-45
2022/11/08 11:07:37;;;;;;;1.08;0.40;;;21.40;62.00;;;;;;5905528;28;29952;-45
2022/11/08 11:10:41;;;;;;;0.95;0.35;;;21.50;63.90;;;;;;5905875;28;31403;-45
2022/11/08 11:13:43;;;;;;;1.33;0.50;;;22.00;64.10;;;;;;5904078;28;20044;-45
2022/11/08 11:16:54;;;;;;;1.33;0.60;;;21.40;63.90;;;;;;5873048;28;20590;-45
2022/11/08 11:19:57;;;;;;;0.95;0.38;;;22.20;64.90;;;;;;5953353;28;24897;-45
2022/11/08 11:22:59;;;;;;;1.23;0.40;;;21.60;64.00;;;;;;5906610;28;20923;-45
2022/11/08 11:26:04;;;;;;;0.80;0.40;;;21.60;64.00;;;;;;5941794;28;23652;-45
2022/11/08 11:29:16;;;;;;;1.60;0.68;;;22.10;63.80;;;;;;6008445;28;20055;-45
2022/11/08 11:32:23;;;;;;;1.20;0.50;;;21.60;64.20;;;;;;6020570;28;21534;-45
2022/11/08 11:35:32;;;;;;;2.00;0.50;;;21.80;63.40;;;;;;6028585;28;21779;-45
2022/11/08 11:38:41;;;;;;;1.15;0.40;;;22.00;63.80;;;;;;6022144;28;21701;-45
2022/11/08 11:41:49;;;;;;;2.17;0.60;;;21.80;63.70;;;;;;6044711;28;20344;-45
2022/11/08 11:45:05;;;;;;;1.48;0.45;;;21.60;63.20;;;;;;6047027;28;25955;-45
2022/11/08 11:48:15;;;;;;;1.10;0.30;;;22.30;63.60;;;;;;6102791;28;21050;-45
2022/11/08 11:51:17;;;;;;;1.17;0.40;;;22.00;63.60;;;;;;6105736;28;20076;-45
2022/11/08 11:54:19;;;;;;;1.05;0.38;;;22.00;63.20;;;;;;6097146;28;21885;-45
2022/11/08 11:57:34;;;;;;;0.80;0.40;;;21.90;63.50;;;;;;6108119;28;20089;-45
2022/11/08 12:00:41;;;;;;;0.40;0.30;;;21.90;63.20;;;;;;6113074;28;20159;-45
2022/11/08 12:04:06;;;;;;;0.88;0.30;;;22.50;60.80;;;;;;6097403;28;21074;-45
2022/11/08 12:07:18;;;;;;;1.15;0.60;;;22.10;60.80;;;;;;6111633;28;20047;-45
2022/11/08 12:10:46;;;;;;;0.95;0.40;;;22.10;62.40;;;;;;6098439;28;20049;-45
2022/11/08 12:14:11;;;;;;;1.38;0.43;;;21.80;60.30;;;;;;6104284;28;20144;-46
2022/11/08 12:35:41;;;;;;;1.38;0.40;;;21.90;60.30;;;;;;7191099;22;20060;-36
2022/11/08 12:38:55;;;;;;;0.80;0.40;;;22.20;62.80;;;;;;6031361;28;20044;-37
2022/11/08 12:42:13;;;;;;;1.20;0.40;;;22.00;62.40;;;;;;6030378;28;20040;-36
2022/11/08 12:45:26;;;;;;;0.93;0.40;;;21.90;62.20;;;;;;6052037;28;20136;-36
2022/11/08 12:48:44;;;;;;;1.02;0.50;;;22.00;62.30;;;;;;6038962;28;20040;-36
2022/11/08 12:52:00;;;;;;;0.80;0.38;;;22.20;62.30;;;;;;6020684;28;20044;-36
2022/11/08 12:55:08;;;;;;;1.23;0.32;;;22.00;62.10;;;;;;6039704;28;20873;-36
2022/11/08 12:58:25;;;;;;;1.73;0.45;;;22.10;62.00;;;;;;6037287;28;20054;-37
2022/11/08 13:01:28;;;;;;;1.23;0.47;;;21.80;61.80;;;;;;5945092;28;31531;-36
2022/11/08 13:04:39;;;;;;;1.48;0.50;;;22.60;61.80;;;;;;5963138;28;20480;-37
2022/11/08 13:07:47;;;;;;;0.88;0.45;;;22.10;61.70;;;;;;5824135;28;20047;-36
2022/11/08 13:10:58;;;;;;;1.55;0.70;;;21.80;60.70;;;;;;5926450;28;33199;-37
2022/11/08 13:14:00;;;;;;;1.20;0.50;;;22.30;61.80;;;;;;5954015;28;20047;-36
2022/11/08 13:17:19;;;;;;;2.30;0.70;;;22.30;61.80;;;;;;5954496;28;20047;-36
2022/11/08 13:20:36;;;;;;;4.88;0.98;;;22.00;61.40;;;;;;5940845;28;31790;-36
2022/11/08 13:23:38;;;;;;;1.73;0.50;;;22.20;61.50;;;;;;5942198;28;20048;-36
2022/11/08 13:26:42;;;;;;;2.58;0.60;;;21.70;61.10;;;;;;5918210;28;20080;-36
2022/11/08 13:29:43;;;;;;;1.98;0.50;;;22.20;61.40;;;;;;5937337;28;20051;-36
2022/11/08 13:32:51;;;;;;;2.70;1.00;;;22.20;61.20;;;;;;5850263;28;20055;-36
2022/11/08 13:36:10;;;;;;;2.33;0.98;;;22.50;61.10;;;;;;5882047;28;38206;-36
2022/11/08 13:39:29;;;;;;;3.28;0.70;;;22.00;60.60;;;;;;5918677;28;20045;-36
2022/11/08 13:42:57;;;;;;;1.65;0.77;;;22.30;61.00;;;;;;5904701;28;20047;-36
2022/11/08 13:46:28;;;;;;;3.63;0.80;;;22.10;60.70;;;;;;5875022;28;21078;-36
2022/11/08 13:49:29;;;;;;;2.03;0.80;;;22.20;60.70;;;;;;5874359;28;33625;-36
2022/11/08 13:52:43;;;;;;;2.25;0.65;;;22.30;61.00;;;;;;5881339;28;21003;-36
2022/11/08 13:55:47;;;;;;;1.83;0.50;;;22.00;61.30;;;;;;5898820;28;29747;-36
2022/11/08 13:58:49;;;;;;;2.65;0.77;;;22.10;60.60;;;;;;5925174;28;20063;-36
2022/11/08 14:02:02;;;;;;;1.73;0.52;;;22.50;60.70;;;;;;5920066;28;23713;-36
2022/11/08 14:05:19;;;;;;;1.27;0.50;;;22.70;60.70;;;;;;5912486;28;20903;-36
2022/11/08 14:08:25;;;;;;;1.58;0.57;;;22.40;60.60;;;;;;5917383;28;25639;-36
2022/11/08 14:11:39;;;;;;;3.15;0.80;;;22.60;60.50;;;;;;5929809;28;29876;-36
2022/11/08 14:14:48;;;;;;;1.88;0.60;;;22.50;60.50;;;;;;5921212;28;32250;-36
2022/11/08 14:17:53;;;;;;;2.10;0.70;;;22.20;60.50;;;;;;5928493;28;21721;-36
2022/11/08 14:20:56;;;;;;;2.10;0.85;;;22.20;60.20;;;;;;5912363;28;32902;-36
2022/11/08 14:23:57;;;;;;;3.33;1.20;;;22.20;60.20;;;;;;5941940;28;31892;-36
2022/11/08 14:27:01;;;;;;;3.17;1.08;;;22.50;59.70;;;;;;5940892;28;23405;-36
2022/11/08 14:30:07;;;;;;;5.57;0.85;;;22.10;59.30;;;;;;5917908;28;25380;-36
2022/11/08 14:33:17;;;;;;;2.00;0.60;;;22.10;59.30;;;;;;5952912;28;20051;-36
2022/11/08 14:36:20;;;;;;;3.35;0.80;;;22.50;60.00;;;;;;5917493;28;20514;-36
2022/11/08 14:39:28;;;;;;;2.67;0.85;;;22.70;60.10;;;;;;5909599;28;20044;-36
2022/11/08 14:42:35;;;;;;;2.53;0.65;;;22.50;59.60;;;;;;5932087;28;27588;-36
2022/11/08 14:45:44;;;;;;;3.38;0.70;;;22.30;58.10;;;;;;5887345;28;32617;-36
2022/11/08 14:48:52;;;;;;;2.58;0.95;;;22.60;59.70;;;;;;5920808;28;20146;-36
2022/11/08 14:52:12;;;;;;;1.88;0.70;;;22.80;59.80;;;;;;5943505;28;21286;-36
2022/11/08 14:55:23;;;;;;;2.35;0.75;;;22.20;59.60;;;;;;5933142;28;22537;-37
2022/11/08 14:58:28;;;;;;;2.50;0.60;;;22.90;59.80;;;;;;5949346;28;22703;-35
2022/11/08 15:01:32;;;;;;;2.75;0.70;;;22.30;59.50;;;;;;5925147;28;21241;-35
2022/11/08 15:04:39;;;;;;;2.17;0.65;;;22.10;59.40;;;;;;5819100;28;22161;-35
2022/11/08 15:07:46;;;;;;;7.05;1.00;;;22.50;59.30;;;;;;5837233;28;28411;-36
2022/11/08 15:10:58;;;;;;;3.45;0.93;;;22.50;57.60;;;;;;5804342;28;30133;-36
2022/11/08 15:14:04;;;;;;;2.70;0.65;;;22.40;59.40;;;;;;5791330;28;27868;-36
2022/11/08 15:17:29;;;;;;;2.25;0.93;;;22.60;59.40;;;;;;5804046;28;33310;-36
2022/11/08 15:20:31;;;;;;;2.42;0.80;;;23.10;59.10;;;;;;5933414;28;31535;-36
2022/11/08 15:23:40;;;;;;;3.33;0.90;;;22.70;59.00;;;;;;5903567;28;20051;-36
2022/11/08 15:27:00;;;;;;;3.03;0.93;;;22.60;59.10;;;;;;5882789;28;33208;-37
2022/11/08 15:30:15;;;;;;;3.17;1.02;;;22.70;59.20;;;;;;5883023;28;30362;-35
2022/11/08 15:33:23;;;;;;;2.53;0.90;;;22.60;59.20;;;;;;5903806;28;20047;-36
2022/11/08 15:36:33;;;;;;;4.65;1.08;;;22.20;59.10;;;;;;5921630;28;24273;-35
2022/11/08 15:39:39;;;;;;;3.70;0.95;;;22.90;59.20;;;;;;5908759;28;24102;-35
2022/11/08 15:42:44;;;;;;;2.22;0.77;;;22.60;59.20;;;;;;5884669;28;20142;-35
2022/11/08 15:45:53;;;;;;;1.48;0.73;;;22.60;59.20;;;;;;5847545;28;28297;-35
2022/11/08 15:49:01;;;;;;;3.28;0.85;;;22.60;57.70;;;;;;5940536;28;31823;-35
2022/11/08 15:52:07;;;;;;;2.10;0.63;;;22.60;59.20;;;;;;5949030;28;35245;-35
2022/11/08 15:55:14;;;;;;;1.67;0.70;;;22.30;57.30;;;;;;5896469;28;35216;-35
2022/11/08 15:58:23;;;;;;;3.22;0.90;;;22.40;58.90;;;;;;5896064;28;31182;-35
2022/11/08 16:01:31;;;;;;;1.55;0.77;;;22.70;59.20;;;;;;5937412;28;21175;-35
2022/11/08 16:04:35;;;;;;;2.03;0.60;;;22.70;59.20;;;;;;5961762;28;20064;-34
2022/11/08 16:07:39;;;;;;;2.25;0.60;;;22.30;57.30;;;;;;5989295;28;21646;-34
2022/11/08 16:10:46;;;;;;;1.92;0.70;;;22.30;58.80;;;;;;5911572;28;20679;-34
2022/11/08 16:13:50;;;;;;;2.10;0.88;;;22.60;59.00;;;;;;5946085;28;30420;-34
2022/11/08 16:16:54;;;;;;;1.75;0.65;;;22.30;58.80;;;;;;5954881;28;20175;-34
2022/11/08 16:19:56;;;;;;;2.05;0.70;;;22.70;58.10;;;;;;5963510;28;32012;-34
2022/11/08 16:23:03;;;;;;;1.27;0.55;;;22.70;59.40;;;;;;5988238;28;20045;-34
2022/11/08 16:26:12;;;;;;;2.22;0.68;;;22.40;59.00;;;;;;5962814;28;20336;-34
2022/11/08 16:29:22;;;;;;;0.60;0.40;;;22.70;59.20;;;;;;6028816;28;22856;-34
2022/11/08 16:32:25;;;;;;;2.35;0.60;;;22.60;59.10;;;;;;6016798;28;20166;-34
2022/11/08 16:35:31;;;;;;;0.98;0.40;;;22.40;59.10;;;;;;6040518;28;22268;-34
2022/11/08 16:38:36;;;;;;;1.88;0.60;;;22.80;57.50;;;;;;6036744;28;20045;-34
2022/11/08 16:41:38;;;;;;;1.63;0.60;;;22.40;59.10;;;;;;6055115;28;21228;-34
2022/11/08 16:44:44;;;;;;;1.83;0.50;;;22.60;59.10;;;;;;6047232;28;22486;-34
2022/11/08 16:47:50;;;;;;;1.27;0.55;;;22.50;59.20;;;;;;6028377;28;20154;-34
2022/11/08 16:50:57;;;;;;;1.35;0.60;;;22.70;59.20;;;;;;6006043;28;20053;-34
2022/11/08 16:54:02;;;;;;;1.65;0.57;;;22.20;58.80;;;;;;5994558;28;20446;-34